createdAt,value
2022-12-17T00:01:40.017Z,27.33
2022-12-17T00:07:01.835Z,25.27
2022-12-17T00:12:23.699Z,24.13
2022-12-17T00:17:45.535Z,25.33
2022-12-17T00:23:07.447Z,23.60
2022-12-17T00:28:29.256Z,23.38
2022-12-17T00:33:51.067Z,25.30
2022-12-17T00:39:13.843Z,25.40
2022-12-17T00:44:35.687Z,24.60
2022-12-17T00:49:57.510Z,25.00
2022-12-17T00:55:19.363Z,26.05
2022-12-17T01:00:42.054Z,25.00
2022-12-17T01:06:04.177Z,25.58
2022-12-17T01:11:26.130Z,27.05
2022-12-17T01:16:48.101Z,25.02
2022-12-17T01:22:09.962Z,24.08
2022-12-17T01:27:31.853Z,24.50
2022-12-17T01:33:00.018Z,24.77
2022-12-17T01:38:21.826Z,23.13
2022-12-17T01:43:43.981Z,25.65
2022-12-17T01:49:07.586Z,23.85
2022-12-17T01:54:29.440Z,25.27
2022-12-17T02:00:06.563Z,26.75
2022-12-17T02:05:39.018Z,25.55
2022-12-17T02:11:07.546Z,26.15
2022-12-17T02:16:43.201Z,25.02
2022-12-17T02:22:14.568Z,25.77
2022-12-17T02:27:36.587Z,24.42
2022-12-17T02:33:00.500Z,24.55
2022-12-17T02:38:24.960Z,22.77
2022-12-17T02:43:47.043Z,23.25
2022-12-17T02:49:08.887Z,20.70
2022-12-17T02:54:32.626Z,21.92
2022-12-17T02:59:54.419Z,21.90
2022-12-17T03:05:43.460Z,21.92
2022-12-17T03:10:58.230Z,20.98
2022-12-17T03:16:20.103Z,22.25
2022-12-17T03:21:42.403Z,24.13
2022-12-17T03:27:04.306Z,21.83
2022-12-17T03:32:26.115Z,24.08
2022-12-17T03:37:47.999Z,22.58
2022-12-17T03:43:11.738Z,22.08
2022-12-17T03:48:33.605Z,20.65
2022-12-17T03:53:55.411Z,19.73
2022-12-17T03:59:17.320Z,22.95
2022-12-17T04:04:39.204Z,22.85
2022-12-17T04:10:01.056Z,19.80
2022-12-17T04:15:22.914Z,20.65
2022-12-17T04:20:44.759Z,21.90
2022-12-17T04:26:06.622Z,22.17
2022-12-17T04:31:28.525Z,19.92
2022-12-17T04:36:50.486Z,16.30
2022-12-17T04:42:12.362Z,19.42
2022-12-17T04:47:34.198Z,17.75
2022-12-17T04:53:04.041Z,21.02
2022-12-17T04:58:25.860Z,20.48
2022-12-17T05:03:47.825Z,22.50
2022-12-17T05:09:09.864Z,18.27
2022-12-17T05:14:31.687Z,20.60
2022-12-17T05:19:53.499Z,17.30
2022-12-17T05:25:15.639Z,21.10
2022-12-17T05:30:37.515Z,22.35
2022-12-17T05:36:00.600Z,18.48
2022-12-17T05:41:22.477Z,18.77
2022-12-17T05:46:44.400Z,20.60
2022-12-17T05:52:06.266Z,18.08
2022-12-17T05:57:28.093Z,19.02
2022-12-17T06:02:58.191Z,17.90
2022-12-17T06:08:20.153Z,19.40
2022-12-17T06:13:42.050Z,21.52
2022-12-17T06:19:03.957Z,21.48
2022-12-17T06:24:25.778Z,21.65
2022-12-17T06:29:47.598Z,21.23
2022-12-17T06:35:09.710Z,21.77
2022-12-17T06:40:31.629Z,18.13
2022-12-17T06:45:53.468Z,20.45
2022-12-17T06:51:15.292Z,20.33
2022-12-17T06:56:37.196Z,20.90
2022-12-17T07:01:59.218Z,20.92
2022-12-17T07:07:21.157Z,20.30
2022-12-17T07:12:43.016Z,21.17
2022-12-17T07:18:05.159Z,20.05
2022-12-17T07:23:27.249Z,19.20
2022-12-17T07:28:49.173Z,18.48
2022-12-17T07:34:10.985Z,18.67
2022-12-17T07:39:32.814Z,19.30
2022-12-17T07:44:54.616Z,19.50
2022-12-17T07:50:16.440Z,17.25
2022-12-17T07:55:38.255Z,18.27
2022-12-17T08:01:01.071Z,19.48
2022-12-17T08:06:22.955Z,19.30
2022-12-17T08:11:44.898Z,18.55
2022-12-17T08:17:06.869Z,19.50
2022-12-17T08:22:28.757Z,19.77
2022-12-17T08:28:00.069Z,16.80
2022-12-17T08:33:21.977Z,18.30
2022-12-17T08:38:45.261Z,20.85
2022-12-17T08:44:07.071Z,19.48
2022-12-17T08:49:30.321Z,21.67
2022-12-17T08:54:52.220Z,24.73
2022-12-17T09:00:14.518Z,21.77
2022-12-17T09:05:36.463Z,23.52
2022-12-17T09:11:00.404Z,22.60
2022-12-17T09:16:22.783Z,22.60
2022-12-17T09:21:44.995Z,20.95
2022-12-17T09:27:06.847Z,22.77
2022-12-17T09:32:28.776Z,21.65
2022-12-17T09:37:54.698Z,20.60
2022-12-17T09:43:30.559Z,17.75
2022-12-17T09:49:20.042Z,19.52
2022-12-17T09:54:48.365Z,22.15
2022-12-17T10:00:22.823Z,23.67
2022-12-17T10:05:46.644Z,21.95
2022-12-17T10:11:34.219Z,22.70
2022-12-17T10:16:56.508Z,21.73
2022-12-17T10:22:19.939Z,21.40
2022-12-17T10:27:41.816Z,22.02
2022-12-17T10:33:07.958Z,23.90
2022-12-17T10:43:52.760Z,22.35
2022-12-17T10:49:20.075Z,23.27
2022-12-17T10:54:46.988Z,24.10
2022-12-17T11:00:50.640Z,22.50
2022-12-17T11:06:18.534Z,23.17
2022-12-17T11:11:40.931Z,23.05
2022-12-17T11:17:07.232Z,23.27
2022-12-17T11:22:43.721Z,21.52
2022-12-17T11:28:15.360Z,22.27
2022-12-17T11:33:50.121Z,21.85
2022-12-17T11:39:21.633Z,21.45
2022-12-17T11:45:10.441Z,22.05
2022-12-17T11:50:50.787Z,20.95
2022-12-17T11:56:26.633Z,22.23
2022-12-17T12:02:28.777Z,22.48
2022-12-17T12:08:22.964Z,19.55
2022-12-17T12:14:02.833Z,23.27
2022-12-17T12:19:51.426Z,19.65
2022-12-17T12:25:34.978Z,19.27
2022-12-17T12:31:12.132Z,23.02
2022-12-17T12:36:36.083Z,21.08
2022-12-17T12:42:12.556Z,22.73
2022-12-17T12:47:42.259Z,21.95
2022-12-17T12:53:04.532Z,22.33
2022-12-17T12:58:30.524Z,18.65
2022-12-17T13:03:55.393Z,20.50
2022-12-17T13:09:17.143Z,19.42
2022-12-17T13:15:06.812Z,21.45
2022-12-17T13:20:31.922Z,20.23
2022-12-17T13:26:12.454Z,20.57
2022-12-17T13:31:51.111Z,18.55
2022-12-17T13:37:31.333Z,16.83
2022-12-17T13:42:53.214Z,15.02
2022-12-17T13:48:24.172Z,19.70
2022-12-17T13:53:57.546Z,20.40
2022-12-17T13:59:21.948Z,20.38
2022-12-17T14:04:53.003Z,20.33
2022-12-17T14:10:20.128Z,19.40
2022-12-17T14:15:50.899Z,20.75
2022-12-17T14:21:13.284Z,21.15
2022-12-17T14:26:35.113Z,20.70
2022-12-17T14:32:02.556Z,21.35
2022-12-17T14:37:26.048Z,23.75
2022-12-17T14:42:48.435Z,24.33
2022-12-17T14:48:16.012Z,23.48
2022-12-17T14:53:38.229Z,24.13
2022-12-17T14:59:01.813Z,26.55
2022-12-17T15:04:24.030Z,24.92
2022-12-17T15:09:45.834Z,24.63
2022-12-17T15:15:11.859Z,25.45
2022-12-17T15:25:55.774Z,22.50
2022-12-17T15:31:21.866Z,21.90
2022-12-17T15:36:46.518Z,23.88
2022-12-17T15:42:10.147Z,23.92
2022-12-17T15:47:32.255Z,24.98
2022-12-17T15:52:54.155Z,25.45
2022-12-17T15:58:16.004Z,23.38
2022-12-17T16:03:37.979Z,22.23
2022-12-17T16:08:59.890Z,22.60
2022-12-17T16:14:25.947Z,25.02
2022-12-17T16:19:47.961Z,21.17
2022-12-17T16:25:10.118Z,21.38
2022-12-17T16:30:31.963Z,25.52
2022-12-17T16:35:57.145Z,23.98
2022-12-17T16:41:20.899Z,24.63
2022-12-17T16:46:44.523Z,20.10
2022-12-17T16:52:06.594Z,23.05
2022-12-17T16:57:28.549Z,22.90
2022-12-17T17:02:53.496Z,24.20
2022-12-17T17:08:15.856Z,21.93
2022-12-17T17:13:38.476Z,22.73
2022-12-17T17:19:01.090Z,21.60
2022-12-17T17:24:23.970Z,21.77
2022-12-17T17:29:45.761Z,24.20
2022-12-17T17:35:07.896Z,22.65
2022-12-17T17:40:29.736Z,18.83
2022-12-17T17:45:51.710Z,23.63
2022-12-17T17:51:16.022Z,21.88
2022-12-17T17:56:40.801Z,23.45
2022-12-17T18:02:03.003Z,23.20
2022-12-17T18:07:26.436Z,22.70
2022-12-17T18:12:49.034Z,20.48
2022-12-17T18:18:14.456Z,20.65
2022-12-17T18:23:37.318Z,21.15
2022-12-17T18:28:59.503Z,21.40
2022-12-17T18:34:24.563Z,19.75
2022-12-17T18:39:46.526Z,17.80
2022-12-17T18:45:08.787Z,18.70
2022-12-17T18:50:30.684Z,17.90
2022-12-17T18:55:52.929Z,17.35
2022-12-17T19:01:19.813Z,17.85
2022-12-17T19:06:42.764Z,17.88
2022-12-17T19:12:06.799Z,16.58
2022-12-17T19:17:28.584Z,17.33
2022-12-17T19:22:50.459Z,19.33
2022-12-17T19:28:12.343Z,19.02
2022-12-17T19:33:34.579Z,18.65
2022-12-17T19:38:59.299Z,17.20
2022-12-17T19:44:21.476Z,18.98
2022-12-17T19:49:43.423Z,17.63
2022-12-17T19:55:05.851Z,17.70
2022-12-17T20:00:27.824Z,17.40
2022-12-17T20:05:50.378Z,17.77
2022-12-17T20:11:15.679Z,16.83
2022-12-17T20:16:51.870Z,19.63
2022-12-17T20:22:13.804Z,16.30
2022-12-17T20:27:35.676Z,17.05
2022-12-17T20:32:57.734Z,17.20
2022-12-17T20:38:20.383Z,19.17
2022-12-17T20:43:43.118Z,19.45
2022-12-17T20:49:05.651Z,17.20
2022-12-17T20:54:27.879Z,16.58
2022-12-17T20:59:50.002Z,13.88
2022-12-17T21:05:11.832Z,18.38
2022-12-17T21:10:33.782Z,16.35
2022-12-17T21:15:58.001Z,17.02
2022-12-17T21:21:24.536Z,17.58
2022-12-17T21:26:47.126Z,16.30
2022-12-17T21:32:09.002Z,20.33
2022-12-17T21:37:31.058Z,25.15
2022-12-17T21:42:52.862Z,25.30
2022-12-17T21:48:15.366Z,24.98
2022-12-17T21:53:37.434Z,25.50
2022-12-17T21:59:01.073Z,25.75
2022-12-17T22:04:23.810Z,25.88
2022-12-17T22:09:59.029Z,28.98
2022-12-17T22:15:32.282Z,24.70
2022-12-17T22:21:02.304Z,23.50
2022-12-17T22:26:24.181Z,22.48
2022-12-17T22:31:46.009Z,20.42
2022-12-17T22:41:27.429Z,23.50
2022-12-17T22:44:38.631Z,24.00
2022-12-17T22:48:32.501Z,22.00
2022-12-17T22:53:54.609Z,23.83
2022-12-17T22:59:18.497Z,23.10
2022-12-17T23:04:40.382Z,21.00
2022-12-17T23:10:02.182Z,20.15
2022-12-17T23:15:34.040Z,21.15
2022-12-17T23:20:56.079Z,21.17
2022-12-17T23:26:21.902Z,21.05
2022-12-17T23:31:43.740Z,21.17
2022-12-17T23:37:05.810Z,20.88
2022-12-17T23:42:27.627Z,20.25
2022-12-17T23:47:49.436Z,20.98
2022-12-17T23:53:11.244Z,22.17
2022-12-17T23:58:34.462Z,22.35
